Orø Flyveplads

DK-0002 · Capital Region, 丹麦

使用的METAR站距离机场29 km。
罗盘
风向 的 风向 180°
风: 14 kt, 4 beaufort

添加一条跑道以查看侧风和逆风信息。

添置 跑道
0 ft 2.000 4.000 6.000 8.000 10.000
Cloud Cloud Cloud Cloud Cloud Cloud
BKN 5.700
METAR EKRK 231720Z AUTO 18014KT 9999 BKN057/// 07/M01 Q0994

METAR Orø Flyveplads - DK-0002

Orø Flyveplads是,丹麦中的小机场。 该机场位于纬度55,78752和经度11,84306。 这个机场没有ICAO代码,我们使用DK-0002作为参考。 机场在Kobenhavn FIR中。

该航空气象观测是针对Copenhagen Roskilde Airport在2024年2月23日 18:20, 当地时间进行的。

机场观察

风向为180°,速度为14 kt。

可见度为10 km 或者更多。

有碎云在5.700 ft的高度。 破损或更高的上限为5.700 ft。

温度为7 °C,阵风为2 °C。 露点为-1 °C,相对湿度为57%。 海平面上的气压为994 hPa (QNH)。

白天

今天,太阳从07:19升起,在17:32降落。 这适用于Orø Flyveplads,世界夏令时可能有所不同。 当地时间与世界标准时间之间的时差为+1 小时。 当前,没有夏令时有效。

公司介绍

我们没有关于这个机场的公司信息。

体会

到Vliegles.nl去找飞行课程,跳伞和其他飞行体验。 浏览页面,了解Orø Flyveplads附近所有可用的活动。 你也可以使用搜索功能来寻找你所在地附近的特定飞行课程、跳伞或其他飞行体验。

乌云

5.700 ft BKN 碎云

温度 & 天气

温度 7 °C
露点 -1 °C
相对湿度 57%
风寒 2 °C
Kp-index 0 (0-9)

白天

日出
07:17 (12:42)
中午
12:24
日落
17:32

小工具

你想在你的网站上有一个关于Orø Flyveplads的当前航空天气(METAR)的小部件吗?

显示HTML代码
?>